首页
METAR-TAF:

METAR-TAF

机场 :

南锡, 法国

纬度: 48-35N, 经度: 005-58E, 海拔: 336米

当前天气观测

该预报发布于26分钟前的18:30 UTC
风速12节,风向南转西南
温度 5°C
湿度 81%
气压 1026 hPa
能见度10公里或以上
少量云层高于3500英尺
多云层高于14000英尺

METAR: LFSO 181830Z AUTO 21012KT 9999 FEW035 BKN140 05/02 Q1026

时间: 19:56 (18:56 UTC)

预报

该预报发布于4小时和56分钟前的14:00 UTC
预报有效从18日的 15点(UTC)到 19日的 15点(UTC)
风速15节,风向西转西南
能见度10公里或以上
多云层高于3500英尺
几率 30% :
短暂存在
从 18日的 15点(UTC)到 18日的 18点(UTC)
能見度: 4500
小阵雨
成为
从 18日的 23点(UTC)到 19日的 01点(UTC)
风速15节,风向西南,有时为30节阵风
能見度: 4000
阴天层高于1000英尺
小雨
成为
从 19日的 05点(UTC)到 19日的 07点(UTC)
风速15节,风向西,有时为25节阵风
能见度10公里或以上
多云层高于1500英尺
成为
从 19日的 10点(UTC)到 19日的 12点(UTC)
多云层高于2500英尺

TAF: LFSO 181400Z 1815/1915 24015KT 9999 BKN035 PROB30 TEMPO 1815/1818 4500 -SHRA BECMG 1823/1901 22015G30KT 4000 -RA OVC010 BECMG 1905/1907 27015G25KT 9999 NSW BKN015 BECMG 1910/1912 BKN025

超过4000个机场的气象观测和天气预报(METAR&TAF报告)。

可查询的气象台以黄色和红色小点在地图上表示。

将鼠标移到小点上方,可查看气象台名称。

然后点击查看天气观测和预报。

如需切换地图:点击带黑十字的绿色按钮放大地图;点击带横线的绿色按钮缩小地图;或者点击绿色箭头查看邻近地区的地图。


METAR-TAF: